sensor_id;sensor_type;location;lat;lon;timestamp;temperature;humidity
17296;DHT22;8766;51.480;6.872;2023-02-23T00:01:48;11.60;76.00
17296;DHT22;8766;51.480;6.872;2023-02-23T00:04:16;11.60;75.90
17296;DHT22;8766;51.480;6.872;2023-02-23T00:06:43;11.60;75.90
17296;DHT22;8766;51.480;6.872;2023-02-23T00:09:10;11.60;75.90
17296;DHT22;8766;51.480;6.872;2023-02-23T00:11:48;11.60;75.90
17296;DHT22;8766;51.480;6.872;2023-02-23T00:14:15;11.60;75.90
17296;DHT22;8766;51.480;6.872;2023-02-23T00:16:42;11.60;76.00
17296;DHT22;8766;51.480;6.872;2023-02-23T00:19:10;11.60;75.90
17296;DHT22;8766;51.480;6.872;2023-02-23T00:21:39;11.60;76.00
17296;DHT22;8766;51.480;6.872;2023-02-23T00:24:07;11.60;76.00
17296;DHT22;8766;51.480;6.872;2023-02-23T00:26:36;11.60;76.70
17296;DHT22;8766;51.480;6.872;2023-02-23T00:29:06;11.60;76.00
17296;DHT22;8766;51.480;6.872;2023-02-23T00:31:34;11.60;76.00
17296;DHT22;8766;51.480;6.872;2023-02-23T00:34:03;11.60;76.00
17296;DHT22;8766;51.480;6.872;2023-02-23T00:36:32;11.50;76.00
17296;DHT22;8766;51.480;6.872;2023-02-23T00:39:02;11.50;76.00
17296;DHT22;8766;51.480;6.872;2023-02-23T00:41:41;11.60;76.10
17296;DHT22;8766;51.480;6.872;2023-02-23T00:44:10;11.60;76.10
17296;DHT22;8766;51.480;6.872;2023-02-23T00:46:40;11.60;76.10
17296;DHT22;8766;51.480;6.872;2023-02-23T00:49:08;11.50;76.00
17296;DHT22;8766;51.480;6.872;2023-02-23T00:51:36;11.50;76.00
17296;DHT22;8766;51.480;6.872;2023-02-23T00:54:04;11.50;76.00
17296;DHT22;8766;51.480;6.872;2023-02-23T00:56:31;11.50;76.00
17296;DHT22;8766;51.480;6.872;2023-02-23T00:58:58;11.50;76.10
17296;DHT22;8766;51.480;6.872;2023-02-23T01:01:27;11.50;76.10
17296;DHT22;8766;51.480;6.872;2023-02-23T01:03:54;11.50;76.10
17296;DHT22;8766;51.480;6.872;2023-02-23T01:06:21;11.50;76.10
17296;DHT22;8766;51.480;6.872;2023-02-23T01:08:50;11.50;76.10
17296;DHT22;8766;51.480;6.872;2023-02-23T01:11:23;11.50;76.20
17296;DHT22;8766;51.480;6.872;2023-02-23T01:13:53;11.50;76.20
17296;DHT22;8766;51.480;6.872;2023-02-23T01:16:23;11.50;76.30
17296;DHT22;8766;51.480;6.872;2023-02-23T01:18:55;11.50;76.90
17296;DHT22;8766;51.480;6.872;2023-02-23T01:21:24;11.50;76.40
17296;DHT22;8766;51.480;6.872;2023-02-23T01:23:51;11.50;76.40
17296;DHT22;8766;51.480;6.872;2023-02-23T01:26:21;11.40;76.30
17296;DHT22;8766;51.480;6.872;2023-02-23T01:28:49;11.40;77.00
17296;DHT22;8766;51.480;6.872;2023-02-23T01:31:16;11.40;76.40
17296;DHT22;8766;51.480;6.872;2023-02-23T01:33:43;11.40;76.30
17296;DHT22;8766;51.480;6.872;2023-02-23T01:36:12;11.40;76.40
17296;DHT22;8766;51.480;6.872;2023-02-23T01:38:39;11.40;76.40
17296;DHT22;8766;51.480;6.872;2023-02-23T01:41:06;11.40;76.40
17296;DHT22;8766;51.480;6.872;2023-02-23T01:43:33;11.40;76.50
17296;DHT22;8766;51.480;6.872;2023-02-23T01:46:02;11.40;76.50
17296;DHT22;8766;51.480;6.872;2023-02-23T01:48:31;11.40;76.50
17296;DHT22;8766;51.480;6.872;2023-02-23T01:51:01;11.40;76.50
17296;DHT22;8766;51.480;6.872;2023-02-23T01:53:35;11.40;76.50
17296;DHT22;8766;51.480;6.872;2023-02-23T01:56:07;11.40;76.60
17296;DHT22;8766;51.480;6.872;2023-02-23T01:58:37;11.30;76.50
17296;DHT22;8766;51.480;6.872;2023-02-23T02:01:04;11.30;76.50
17296;DHT22;8766;51.480;6.872;2023-02-23T02:03:34;11.30;76.50
17296;DHT22;8766;51.480;6.872;2023-02-23T02:06:03;11.30;76.50
17296;DHT22;8766;51.480;6.872;2023-02-23T02:08:33;11.30;76.50
17296;DHT22;8766;51.480;6.872;2023-02-23T02:11:07;11.30;76.60
17296;DHT22;8766;51.480;6.872;2023-02-23T02:13:51;11.30;76.50
17296;DHT22;8766;51.480;6.872;2023-02-23T02:16:37;11.30;76.60
17296;DHT22;8766;51.480;6.872;2023-02-23T02:22:43;11.30;76.60
17296;DHT22;8766;51.480;6.872;2023-02-23T02:25:46;11.30;76.60
17296;DHT22;8766;51.480;6.872;2023-02-23T02:28:45;11.30;76.60
17296;DHT22;8766;51.480;6.872;2023-02-23T02:31:52;11.30;76.60
17296;DHT22;8766;51.480;6.872;2023-02-23T02:34:48;11.30;76.60
17296;DHT22;8766;51.480;6.872;2023-02-23T02:37:35;11.30;76.60
17296;DHT22;8766;51.480;6.872;2023-02-23T02:40:08;11.30;76.60
17296;DHT22;8766;51.480;6.872;2023-02-23T02:42:58;11.30;76.60
17296;DHT22;8766;51.480;6.872;2023-02-23T02:45:29;11.30;76.60
17296;DHT22;8766;51.480;6.872;2023-02-23T02:48:05;11.30;76.60
17296;DHT22;8766;51.480;6.872;2023-02-23T02:50:40;11.30;76.70
17296;DHT22;8766;51.480;6.872;2023-02-23T02:53:10;11.30;76.70
17296;DHT22;8766;51.480;6.872;2023-02-23T02:55:40;11.30;76.70
17296;DHT22;8766;51.480;6.872;2023-02-23T02:58:11;11.30;76.70
17296;DHT22;8766;51.480;6.872;2023-02-23T03:00:40;11.30;76.70
17296;DHT22;8766;51.480;6.872;2023-02-23T03:03:30;11.30;76.70
17296;DHT22;8766;51.480;6.872;2023-02-23T03:06:15;11.30;76.70
17296;DHT22;8766;51.480;6.872;2023-02-23T03:09:07;11.30;76.70
17296;DHT22;8766;51.480;6.872;2023-02-23T03:12:05;11.30;76.70
17296;DHT22;8766;51.480;6.872;2023-02-23T03:14:58;11.30;76.70
17296;DHT22;8766;51.480;6.872;2023-02-23T03:17:47;11.20;76.70
17296;DHT22;8766;51.480;6.872;2023-02-23T03:20:40;11.20;76.70
17296;DHT22;8766;51.480;6.872;2023-02-23T03:23:29;11.20;76.70
17296;DHT22;8766;51.480;6.872;2023-02-23T03:26:22;11.20;76.70
17296;DHT22;8766;51.480;6.872;2023-02-23T03:29:15;11.20;76.70
17296;DHT22;8766;51.480;6.872;2023-02-23T03:32:06;11.20;76.80
17296;DHT22;8766;51.480;6.872;2023-02-23T03:34:59;11.20;76.80
17296;DHT22;8766;51.480;6.872;2023-02-23T03:37:51;11.20;76.90
17296;DHT22;8766;51.480;6.872;2023-02-23T03:40:39;11.20;77.50
17296;DHT22;8766;51.480;6.872;2023-02-23T03:43:31;11.20;76.90
17296;DHT22;8766;51.480;6.872;2023-02-23T03:46:19;11.20;76.80
17296;DHT22;8766;51.480;6.872;2023-02-23T03:49:04;11.20;76.90
17296;DHT22;8766;51.480;6.872;2023-02-23T03:51:54;11.20;76.80
17296;DHT22;8766;51.480;6.872;2023-02-23T03:54:44;11.10;76.80
17296;DHT22;8766;51.480;6.872;2023-02-23T03:57:32;11.10;76.80
17296;DHT22;8766;51.480;6.872;2023-02-23T04:00:24;11.10;76.90
17296;DHT22;8766;51.480;6.872;2023-02-23T04:03:12;11.10;76.90
17296;DHT22;8766;51.480;6.872;2023-02-23T04:05:59;11.10;76.90
17296;DHT22;8766;51.480;6.872;2023-02-23T04:08:45;11.10;76.90
17296;DHT22;8766;51.480;6.872;2023-02-23T04:11:36;11.10;76.90
17296;DHT22;8766;51.480;6.872;2023-02-23T04:14:27;11.10;77.60
17296;DHT22;8766;51.480;6.872;2023-02-23T04:16:55;11.10;76.90
17296;DHT22;8766;51.480;6.872;2023-02-23T04:19:22;11.10;76.90
17296;DHT22;8766;51.480;6.872;2023-02-23T04:21:51;11.10;77.00
17296;DHT22;8766;51.480;6.872;2023-02-23T04:24:18;11.10;77.00
17296;DHT22;8766;51.480;6.872;2023-02-23T04:26:45;11.10;77.10
17296;DHT22;8766;51.480;6.872;2023-02-23T04:29:12;11.10;77.00
17296;DHT22;8766;51.480;6.872;2023-02-23T04:31:39;11.10;77.00
17296;DHT22;8766;51.480;6.872;2023-02-23T04:34:07;11.10;77.00
17296;DHT22;8766;51.480;6.872;2023-02-23T04:36:34;11.10;77.10
17296;DHT22;8766;51.480;6.872;2023-02-23T04:39:01;11.10;77.10
17296;DHT22;8766;51.480;6.872;2023-02-23T04:41:28;11.10;77.20
17296;DHT22;8766;51.480;6.872;2023-02-23T04:43:55;11.10;77.20
17296;DHT22;8766;51.480;6.872;2023-02-23T04:46:21;11.10;77.20
17296;DHT22;8766;51.480;6.872;2023-02-23T04:48:48;11.10;77.20
17296;DHT22;8766;51.480;6.872;2023-02-23T04:51:16;11.00;77.10
17296;DHT22;8766;51.480;6.872;2023-02-23T04:53:43;11.10;77.20
17296;DHT22;8766;51.480;6.872;2023-02-23T04:56:10;11.10;77.20
17296;DHT22;8766;51.480;6.872;2023-02-23T04:58:37;11.10;77.20
17296;DHT22;8766;51.480;6.872;2023-02-23T05:01:05;11.10;77.20
17296;DHT22;8766;51.480;6.872;2023-02-23T05:03:34;11.10;77.20
17296;DHT22;8766;51.480;6.872;2023-02-23T05:06:01;11.10;77.20
17296;DHT22;8766;51.480;6.872;2023-02-23T05:08:29;11.10;77.20
17296;DHT22;8766;51.480;6.872;2023-02-23T05:10:56;11.10;77.20
17296;DHT22;8766;51.480;6.872;2023-02-23T05:13:23;11.10;77.20
17296;DHT22;8766;51.480;6.872;2023-02-23T05:15:50;11.10;77.20
17296;DHT22;8766;51.480;6.872;2023-02-23T05:18:22;11.10;77.20
17296;DHT22;8766;51.480;6.872;2023-02-23T05:20:50;11.10;77.20
17296;DHT22;8766;51.480;6.872;2023-02-23T05:23:17;11.10;77.20
17296;DHT22;8766;51.480;6.872;2023-02-23T05:25:45;11.10;77.20
17296;DHT22;8766;51.480;6.872;2023-02-23T05:28:12;11.10;77.20
17296;DHT22;8766;51.480;6.872;2023-02-23T05:30:39;11.10;77.10
17296;DHT22;8766;51.480;6.872;2023-02-23T05:33:06;11.10;77.10
17296;DHT22;8766;51.480;6.872;2023-02-23T05:35:32;11.10;77.20
17296;DHT22;8766;51.480;6.872;2023-02-23T05:38:00;11.10;77.20
17296;DHT22;8766;51.480;6.872;2023-02-23T05:40:27;11.10;77.20
17296;DHT22;8766;51.480;6.872;2023-02-23T05:42:58;11.10;77.20
17296;DHT22;8766;51.480;6.872;2023-02-23T05:45:25;11.10;77.30
17296;DHT22;8766;51.480;6.872;2023-02-23T05:47:52;11.10;77.20
17296;DHT22;8766;51.480;6.872;2023-02-23T05:50:19;11.10;77.30
17296;DHT22;8766;51.480;6.872;2023-02-23T05:52:46;11.00;77.30
17296;DHT22;8766;51.480;6.872;2023-02-23T05:55:13;11.00;77.30
17296;DHT22;8766;51.480;6.872;2023-02-23T05:57:40;11.00;77.30
17296;DHT22;8766;51.480;6.872;2023-02-23T06:00:11;11.00;77.30
17296;DHT22;8766;51.480;6.872;2023-02-23T06:02:38;11.00;77.30
17296;DHT22;8766;51.480;6.872;2023-02-23T06:05:07;11.00;77.30
17296;DHT22;8766;51.480;6.872;2023-02-23T06:07:33;11.00;77.40
17296;DHT22;8766;51.480;6.872;2023-02-23T06:10:00;11.00;77.40
17296;DHT22;8766;51.480;6.872;2023-02-23T06:12:27;11.00;77.40
17296;DHT22;8766;51.480;6.872;2023-02-23T06:14:54;11.00;77.40
17296;DHT22;8766;51.480;6.872;2023-02-23T06:17:23;11.00;77.40
17296;DHT22;8766;51.480;6.872;2023-02-23T06:19:49;11.00;77.50
17296;DHT22;8766;51.480;6.872;2023-02-23T06:22:16;11.00;77.50
17296;DHT22;8766;51.480;6.872;2023-02-23T06:24:43;11.00;77.50
17296;DHT22;8766;51.480;6.872;2023-02-23T06:27:10;11.00;77.50
17296;DHT22;8766;51.480;6.872;2023-02-23T06:29:38;11.00;77.50
17296;DHT22;8766;51.480;6.872;2023-02-23T06:32:06;11.00;77.50
17296;DHT22;8766;51.480;6.872;2023-02-23T06:34:34;11.00;77.50
17296;DHT22;8766;51.480;6.872;2023-02-23T06:37:01;11.00;77.50
17296;DHT22;8766;51.480;6.872;2023-02-23T06:39:28;11.00;77.50
17296;DHT22;8766;51.480;6.872;2023-02-23T06:41:55;11.00;77.50
17296;DHT22;8766;51.480;6.872;2023-02-23T06:44:22;11.00;77.50
17296;DHT22;8766;51.480;6.872;2023-02-23T06:46:49;11.00;77.50
17296;DHT22;8766;51.480;6.872;2023-02-23T06:49:16;11.00;77.50
17296;DHT22;8766;51.480;6.872;2023-02-23T06:51:44;11.00;77.60
17296;DHT22;8766;51.480;6.872;2023-02-23T06:54:12;11.00;77.50
17296;DHT22;8766;51.480;6.872;2023-02-23T06:56:38;11.00;77.50
17296;DHT22;8766;51.480;6.872;2023-02-23T06:59:05;11.00;77.50
17296;DHT22;8766;51.480;6.872;2023-02-23T07:01:32;11.00;77.60
17296;DHT22;8766;51.480;6.872;2023-02-23T07:03:59;10.90;77.50
17296;DHT22;8766;51.480;6.872;2023-02-23T07:06:26;10.90;77.50
17296;DHT22;8766;51.480;6.872;2023-02-23T07:08:57;10.90;77.50
17296;DHT22;8766;51.480;6.872;2023-02-23T07:11:24;10.90;77.60
17296;DHT22;8766;51.480;6.872;2023-02-23T07:13:51;10.90;77.60
17296;DHT22;8766;51.480;6.872;2023-02-23T07:16:18;10.90;77.60
17296;DHT22;8766;51.480;6.872;2023-02-23T07:18:44;10.90;77.60
17296;DHT22;8766;51.480;6.872;2023-02-23T07:21:11;10.90;77.60
17296;DHT22;8766;51.480;6.872;2023-02-23T07:23:38;10.90;77.60
17296;DHT22;8766;51.480;6.872;2023-02-23T07:26:06;10.90;77.70
17296;DHT22;8766;51.480;6.872;2023-02-23T07:28:34;10.80;77.60
17296;DHT22;8766;51.480;6.872;2023-02-23T07:31:01;10.80;77.70
17296;DHT22;8766;51.480;6.872;2023-02-23T07:33:28;10.80;77.70
17296;DHT22;8766;51.480;6.872;2023-02-23T07:35:57;10.80;77.70
17296;DHT22;8766;51.480;6.872;2023-02-23T07:38:24;10.80;77.80
17296;DHT22;8766;51.480;6.872;2023-02-23T07:40:51;10.80;77.80
17296;DHT22;8766;51.480;6.872;2023-02-23T07:43:19;10.80;77.80
17296;DHT22;8766;51.480;6.872;2023-02-23T07:45:47;10.80;77.80
17296;DHT22;8766;51.480;6.872;2023-02-23T07:48:14;10.80;77.90
17296;DHT22;8766;51.480;6.872;2023-02-23T07:50:41;10.80;77.90
17296;DHT22;8766;51.480;6.872;2023-02-23T07:53:08;10.80;77.80
17296;DHT22;8766;51.480;6.872;2023-02-23T07:55:35;10.70;77.80
17296;DHT22;8766;51.480;6.872;2023-02-23T07:58:03;10.70;77.80
17296;DHT22;8766;51.480;6.872;2023-02-23T08:00:31;10.70;77.90
17296;DHT22;8766;51.480;6.872;2023-02-23T08:02:59;10.70;77.80
17296;DHT22;8766;51.480;6.872;2023-02-23T08:05:26;10.80;77.90
17296;DHT22;8766;51.480;6.872;2023-02-23T08:07:53;10.80;77.80
17296;DHT22;8766;51.480;6.872;2023-02-23T08:10:20;10.80;77.80
17296;DHT22;8766;51.480;6.872;2023-02-23T08:12:48;10.80;77.70
17296;DHT22;8766;51.480;6.872;2023-02-23T08:15:15;10.80;77.70
17296;DHT22;8766;51.480;6.872;2023-02-23T08:17:43;10.80;77.70
17296;DHT22;8766;51.480;6.872;2023-02-23T08:20:10;10.80;77.70
17296;DHT22;8766;51.480;6.872;2023-02-23T08:22:37;10.80;77.70
17296;DHT22;8766;51.480;6.872;2023-02-23T08:25:05;10.80;77.70
17296;DHT22;8766;51.480;6.872;2023-02-23T08:27:33;10.80;77.70
17296;DHT22;8766;51.480;6.872;2023-02-23T08:30:00;10.80;77.70
17296;DHT22;8766;51.480;6.872;2023-02-23T08:32:28;10.80;77.70
17296;DHT22;8766;51.480;6.872;2023-02-23T08:34:56;10.80;77.70
17296;DHT22;8766;51.480;6.872;2023-02-23T08:37:25;10.80;77.70
17296;DHT22;8766;51.480;6.872;2023-02-23T08:39:52;10.80;77.70
17296;DHT22;8766;51.480;6.872;2023-02-23T08:42:19;10.80;77.70
17296;DHT22;8766;51.480;6.872;2023-02-23T08:44:46;10.80;77.60
17296;DHT22;8766;51.480;6.872;2023-02-23T08:47:13;10.90;77.70
17296;DHT22;8766;51.480;6.872;2023-02-23T08:49:42;10.90;77.60
17296;DHT22;8766;51.480;6.872;2023-02-23T08:52:10;10.90;77.50
17296;DHT22;8766;51.480;6.872;2023-02-23T08:54:37;10.90;77.50
17296;DHT22;8766;51.480;6.872;2023-02-23T08:57:04;11.00;77.50
17296;DHT22;8766;51.480;6.872;2023-02-23T08:59:31;11.00;77.40
17296;DHT22;8766;51.480;6.872;2023-02-23T09:01:58;11.00;77.40
17296;DHT22;8766;51.480;6.872;2023-02-23T09:04:24;11.00;77.40
17296;DHT22;8766;51.480;6.872;2023-02-23T09:06:51;11.00;77.30
17296;DHT22;8766;51.480;6.872;2023-02-23T09:09:20;11.00;77.30
17296;DHT22;8766;51.480;6.872;2023-02-23T09:11:47;11.10;77.20
17296;DHT22;8766;51.480;6.872;2023-02-23T09:14:14;11.10;77.80
17296;DHT22;8766;51.480;6.872;2023-02-23T09:16:40;11.10;77.10
17296;DHT22;8766;51.480;6.872;2023-02-23T09:19:09;11.10;77.10
17296;DHT22;8766;51.480;6.872;2023-02-23T09:21:35;11.20;77.00
17296;DHT22;8766;51.480;6.872;2023-02-23T09:24:02;11.20;76.90
17296;DHT22;8766;51.480;6.872;2023-02-23T09:26:32;11.30;76.90
17296;DHT22;8766;51.480;6.872;2023-02-23T09:29:05;11.30;76.80
17296;DHT22;8766;51.480;6.872;2023-02-23T09:31:33;11.30;76.80
17296;DHT22;8766;51.480;6.872;2023-02-23T09:34:00;11.30;76.80
17296;DHT22;8766;51.480;6.872;2023-02-23T09:36:28;11.30;76.80
17296;DHT22;8766;51.480;6.872;2023-02-23T09:38:56;11.30;76.80
17296;DHT22;8766;51.480;6.872;2023-02-23T09:42:04;11.30;76.80
17296;DHT22;8766;51.480;6.872;2023-02-23T09:44:47;11.40;76.80
17296;DHT22;8766;51.480;6.872;2023-02-23T09:47:28;11.40;76.70
17296;DHT22;8766;51.480;6.872;2023-02-23T09:49:58;11.50;76.50
17296;DHT22;8766;51.480;6.872;2023-02-23T09:52:30;11.50;76.40
17296;DHT22;8766;51.480;6.872;2023-02-23T09:55:00;11.60;76.30
17296;DHT22;8766;51.480;6.872;2023-02-23T09:57:35;11.60;76.20
17296;DHT22;8766;51.480;6.872;2023-02-23T10:00:12;11.60;76.20
17296;DHT22;8766;51.480;6.872;2023-02-23T10:02:51;11.60;76.20
17296;DHT22;8766;51.480;6.872;2023-02-23T10:05:22;11.60;76.20
17296;DHT22;8766;51.480;6.872;2023-02-23T10:07:53;11.60;76.30
17296;DHT22;8766;51.480;6.872;2023-02-23T10:10:25;11.50;76.30
17296;DHT22;8766;51.480;6.872;2023-02-23T10:13:00;11.50;76.40
17296;DHT22;8766;51.480;6.872;2023-02-23T10:15:35;11.50;76.40
17296;DHT22;8766;51.480;6.872;2023-02-23T10:18:13;11.50;76.50
17296;DHT22;8766;51.480;6.872;2023-02-23T10:20:47;11.40;76.50
17296;DHT22;8766;51.480;6.872;2023-02-23T10:23:20;11.50;76.60
17296;DHT22;8766;51.480;6.872;2023-02-23T10:25:49;11.50;76.60
17296;DHT22;8766;51.480;6.872;2023-02-23T10:28:20;11.40;76.60
17296;DHT22;8766;51.480;6.872;2023-02-23T10:30:48;11.40;76.70
17296;DHT22;8766;51.480;6.872;2023-02-23T10:33:20;11.40;76.70
17296;DHT22;8766;51.480;6.872;2023-02-23T10:35:50;11.40;76.70
17296;DHT22;8766;51.480;6.872;2023-02-23T10:38:18;11.40;76.70
17296;DHT22;8766;51.480;6.872;2023-02-23T10:40:49;11.50;76.70
17296;DHT22;8766;51.480;6.872;2023-02-23T10:43:16;11.40;76.60
17296;DHT22;8766;51.480;6.872;2023-02-23T10:45:47;11.50;76.50
17296;DHT22;8766;51.480;6.872;2023-02-23T10:48:17;11.50;76.50
17296;DHT22;8766;51.480;6.872;2023-02-23T10:50:46;11.50;76.60
17296;DHT22;8766;51.480;6.872;2023-02-23T10:53:17;11.50;76.60
17296;DHT22;8766;51.480;6.872;2023-02-23T10:55:45;11.50;76.70
17296;DHT22;8766;51.480;6.872;2023-02-23T10:58:14;11.40;76.60
17296;DHT22;8766;51.480;6.872;2023-02-23T11:00:52;11.40;76.70
17296;DHT22;8766;51.480;6.872;2023-02-23T11:03:25;11.40;76.80
17296;DHT22;8766;51.480;6.872;2023-02-23T11:05:53;11.30;76.90
17296;DHT22;8766;51.480;6.872;2023-02-23T11:08:23;11.30;76.90
17296;DHT22;8766;51.480;6.872;2023-02-23T11:11:01;11.20;77.10
17296;DHT22;8766;51.480;6.872;2023-02-23T11:13:38;11.20;77.20
17296;DHT22;8766;51.480;6.872;2023-02-23T11:32:58;11.20;77.20
17296;DHT22;8766;51.480;6.872;2023-02-23T11:35:34;11.20;77.10
17296;DHT22;8766;51.480;6.872;2023-02-23T11:38:14;11.20;77.00
17296;DHT22;8766;51.480;6.872;2023-02-23T11:40:57;11.20;76.90
17296;DHT22;8766;51.480;6.872;2023-02-23T11:43:24;11.30;76.90
17296;DHT22;8766;51.480;6.872;2023-02-23T11:45:53;11.30;76.80
17296;DHT22;8766;51.480;6.872;2023-02-23T11:48:29;11.30;76.70
17296;DHT22;8766;51.480;6.872;2023-02-23T11:50:58;11.40;76.70
17296;DHT22;8766;51.480;6.872;2023-02-23T11:53:28;11.40;76.70
17296;DHT22;8766;51.480;6.872;2023-02-23T11:56:00;11.40;76.70
17296;DHT22;8766;51.480;6.872;2023-02-23T11:58:36;11.40;76.70
17296;DHT22;8766;51.480;6.872;2023-02-23T12:01:05;11.40;76.70
17296;DHT22;8766;51.480;6.872;2023-02-23T12:03:43;11.40;76.70
17296;DHT22;8766;51.480;6.872;2023-02-23T12:06:24;11.40;76.70
17296;DHT22;8766;51.480;6.872;2023-02-23T12:08:56;11.40;76.80
17296;DHT22;8766;51.480;6.872;2023-02-23T12:11:30;11.30;76.80
17296;DHT22;8766;51.480;6.872;2023-02-23T12:14:02;11.30;76.90
17296;DHT22;8766;51.480;6.872;2023-02-23T12:16:34;11.30;76.90
17296;DHT22;8766;51.480;6.872;2023-02-23T12:19:11;11.30;76.90
17296;DHT22;8766;51.480;6.872;2023-02-23T12:21:51;11.30;76.90
17296;DHT22;8766;51.480;6.872;2023-02-23T12:24:30;11.30;76.90
17296;DHT22;8766;51.480;6.872;2023-02-23T12:26:59;11.30;76.90
17296;DHT22;8766;51.480;6.872;2023-02-23T12:29:30;11.30;76.90
17296;DHT22;8766;51.480;6.872;2023-02-23T12:32:01;11.30;76.90
17296;DHT22;8766;51.480;6.872;2023-02-23T12:34:40;11.30;76.90
17296;DHT22;8766;51.480;6.872;2023-02-23T12:37:18;11.30;76.90
17296;DHT22;8766;51.480;6.872;2023-02-23T12:39:51;11.30;77.00
17296;DHT22;8766;51.480;6.872;2023-02-23T12:42:25;11.30;77.00
17296;DHT22;8766;51.480;6.872;2023-02-23T12:44:58;11.30;77.10
17296;DHT22;8766;51.480;6.872;2023-02-23T12:47:32;11.30;77.10
17296;DHT22;8766;51.480;6.872;2023-02-23T12:50:05;11.30;77.10
17296;DHT22;8766;51.480;6.872;2023-02-23T12:52:41;11.30;77.70
17296;DHT22;8766;51.480;6.872;2023-02-23T12:55:11;11.30;77.00
17296;DHT22;8766;51.480;6.872;2023-02-23T12:57:47;11.30;77.00
17296;DHT22;8766;51.480;6.872;2023-02-23T13:00:36;11.30;77.00
17296;DHT22;8766;51.480;6.872;2023-02-23T13:03:21;11.30;76.90
17296;DHT22;8766;51.480;6.872;2023-02-23T13:06:01;11.30;76.80
17296;DHT22;8766;51.480;6.872;2023-02-23T13:08:42;11.30;76.80
17296;DHT22;8766;51.480;6.872;2023-02-23T13:11:18;11.40;76.80
17296;DHT22;8766;51.480;6.872;2023-02-23T13:13:54;11.40;76.70
17296;DHT22;8766;51.480;6.872;2023-02-23T13:16:26;11.40;76.60
17296;DHT22;8766;51.480;6.872;2023-02-23T13:19:03;11.40;76.70
17296;DHT22;8766;51.480;6.872;2023-02-23T13:21:36;11.40;76.60
17296;DHT22;8766;51.480;6.872;2023-02-23T13:24:07;11.40;76.60
17296;DHT22;8766;51.480;6.872;2023-02-23T13:26:41;11.40;76.60
17296;DHT22;8766;51.480;6.872;2023-02-23T13:29:24;11.40;76.60
17296;DHT22;8766;51.480;6.872;2023-02-23T13:31:53;11.40;76.60
17296;DHT22;8766;51.480;6.872;2023-02-23T13:34:24;11.40;76.60
17296;DHT22;8766;51.480;6.872;2023-02-23T13:36:53;11.40;76.70
17296;DHT22;8766;51.480;6.872;2023-02-23T13:39:43;11.40;76.70
17296;DHT22;8766;51.480;6.872;2023-02-23T13:42:26;11.40;76.70
17296;DHT22;8766;51.480;6.872;2023-02-23T13:45:09;11.40;76.70
17296;DHT22;8766;51.480;6.872;2023-02-23T13:47:44;11.40;77.30
17296;DHT22;8766;51.480;6.872;2023-02-23T13:50:18;11.40;76.70
17296;DHT22;8766;51.480;6.872;2023-02-23T13:52:49;11.30;76.70
17296;DHT22;8766;51.480;6.872;2023-02-23T13:55:36;11.40;76.70
17296;DHT22;8766;51.480;6.872;2023-02-23T13:58:05;11.40;76.70
17296;DHT22;8766;51.480;6.872;2023-02-23T14:00:40;11.40;76.60
17296;DHT22;8766;51.480;6.872;2023-02-23T14:03:18;11.50;76.60
17296;DHT22;8766;51.480;6.872;2023-02-23T14:05:45;11.50;77.00
17296;DHT22;8766;51.480;6.872;2023-02-23T14:08:21;11.60;76.20
17296;DHT22;8766;51.480;6.872;2023-02-23T14:10:50;11.60;76.20
17296;DHT22;8766;51.480;6.872;2023-02-23T14:13:26;11.60;76.00
17296;DHT22;8766;51.480;6.872;2023-02-23T14:16:11;11.60;76.10
17296;DHT22;8766;51.480;6.872;2023-02-23T14:21:48;11.50;76.30
17296;DHT22;8766;51.480;6.872;2023-02-23T14:24:20;11.50;76.40
17296;DHT22;8766;51.480;6.872;2023-02-23T14:27:19;11.40;76.50
17296;DHT22;8766;51.480;6.872;2023-02-23T14:32:44;11.40;76.70
17296;DHT22;8766;51.480;6.872;2023-02-23T14:38:29;11.30;76.80
17296;DHT22;8766;51.480;6.872;2023-02-23T14:40:59;11.30;76.90
17296;DHT22;8766;51.480;6.872;2023-02-23T14:43:37;11.30;76.90
17296;DHT22;8766;51.480;6.872;2023-02-23T14:46:11;11.30;76.90
17296;DHT22;8766;51.480;6.872;2023-02-23T14:48:40;11.20;76.90
17296;DHT22;8766;51.480;6.872;2023-02-23T14:51:12;11.20;76.90
17296;DHT22;8766;51.480;6.872;2023-02-23T14:53:41;11.20;76.90
17296;DHT22;8766;51.480;6.872;2023-02-23T14:56:18;11.20;76.90
17296;DHT22;8766;51.480;6.872;2023-02-23T14:58:49;11.30;77.00
17296;DHT22;8766;51.480;6.872;2023-02-23T15:01:35;11.30;76.90
17296;DHT22;8766;51.480;6.872;2023-02-23T15:04:07;11.30;76.80
17296;DHT22;8766;51.480;6.872;2023-02-23T15:06:35;11.30;76.70
17296;DHT22;8766;51.480;6.872;2023-02-23T15:09:02;11.30;76.70
17296;DHT22;8766;51.480;6.872;2023-02-23T15:11:31;11.30;76.80
17296;DHT22;8766;51.480;6.872;2023-02-23T15:13:58;11.30;76.80
17296;DHT22;8766;51.480;6.872;2023-02-23T15:16:28;11.30;76.80
17296;DHT22;8766;51.480;6.872;2023-02-23T15:19:30;11.30;76.80
17296;DHT22;8766;51.480;6.872;2023-02-23T15:21:59;11.30;76.90
17296;DHT22;8766;51.480;6.872;2023-02-23T15:24:31;11.20;76.80
17296;DHT22;8766;51.480;6.872;2023-02-23T15:26:59;11.20;76.90
17296;DHT22;8766;51.480;6.872;2023-02-23T15:29:31;11.20;77.00
17296;DHT22;8766;51.480;6.872;2023-02-23T15:32:12;11.20;77.10
17296;DHT22;8766;51.480;6.872;2023-02-23T15:34:42;11.20;77.10
17296;DHT22;8766;51.480;6.872;2023-02-23T15:37:13;11.20;77.10
17296;DHT22;8766;51.480;6.872;2023-02-23T15:39:47;11.10;77.00
17296;DHT22;8766;51.480;6.872;2023-02-23T15:42:23;11.10;77.00
17296;DHT22;8766;51.480;6.872;2023-02-23T15:44:58;11.10;77.10
17296;DHT22;8766;51.480;6.872;2023-02-23T15:47:31;11.10;77.10
17296;DHT22;8766;51.480;6.872;2023-02-23T15:50:06;11.10;77.20
17296;DHT22;8766;51.480;6.872;2023-02-23T15:52:38;11.10;77.20
17296;DHT22;8766;51.480;6.872;2023-02-23T15:55:10;11.10;77.20
17296;DHT22;8766;51.480;6.872;2023-02-23T15:57:45;11.00;77.20
17296;DHT22;8766;51.480;6.872;2023-02-23T16:00:18;11.00;77.30
17296;DHT22;8766;51.480;6.872;2023-02-23T16:02:49;11.00;77.30
17296;DHT22;8766;51.480;6.872;2023-02-23T16:05:18;11.00;77.30
17296;DHT22;8766;51.480;6.872;2023-02-23T16:07:46;10.90;77.40
17296;DHT22;8766;51.480;6.872;2023-02-23T16:10:21;10.90;77.40
17296;DHT22;8766;51.480;6.872;2023-02-23T16:12:51;10.90;77.40
17296;DHT22;8766;51.480;6.872;2023-02-23T16:15:23;10.90;77.40
17296;DHT22;8766;51.480;6.872;2023-02-23T16:17:55;10.90;77.40
17296;DHT22;8766;51.480;6.872;2023-02-23T16:20:29;10.90;77.40
17296;DHT22;8766;51.480;6.872;2023-02-23T16:23:00;10.90;77.40
17296;DHT22;8766;51.480;6.872;2023-02-23T16:25:28;10.80;77.40
17296;DHT22;8766;51.480;6.872;2023-02-23T16:27:59;10.80;77.50
17296;DHT22;8766;51.480;6.872;2023-02-23T16:30:38;10.80;77.60
17296;DHT22;8766;51.480;6.872;2023-02-23T16:33:11;10.80;77.70
17296;DHT22;8766;51.480;6.872;2023-02-23T16:35:45;10.80;77.60
17296;DHT22;8766;51.480;6.872;2023-02-23T16:38:23;10.80;77.60
17296;DHT22;8766;51.480;6.872;2023-02-23T16:40:51;10.80;77.60
17296;DHT22;8766;51.480;6.872;2023-02-23T16:43:20;10.70;77.60
17296;DHT22;8766;51.480;6.872;2023-02-23T16:45:47;10.70;77.60
17296;DHT22;8766;51.480;6.872;2023-02-23T16:48:14;10.70;77.60